sensor_id;sensor_type;location;lat;lon;timestamp;temperature;humidity
37844;DHT22;63793;57.632;18.292;2023-03-01T00:01:04;2.90;99.90
37844;DHT22;63793;57.632;18.292;2023-03-01T00:03:32;2.90;99.90
37844;DHT22;63793;57.632;18.292;2023-03-01T00:06:00;2.80;99.90
37844;DHT22;63793;57.632;18.292;2023-03-01T00:08:27;2.70;99.90
37844;DHT22;63793;57.632;18.292;2023-03-01T00:11:06;2.70;99.90
37844;DHT22;63793;57.632;18.292;2023-03-01T00:13:34;2.60;99.90
37844;DHT22;63793;57.632;18.292;2023-03-01T00:16:15;2.60;99.90
37844;DHT22;63793;57.632;18.292;2023-03-01T00:18:42;2.60;99.90
37844;DHT22;63793;57.632;18.292;2023-03-01T00:21:10;2.60;99.90
37844;DHT22;63793;57.632;18.292;2023-03-01T00:23:37;2.60;99.90
37844;DHT22;63793;57.632;18.292;2023-03-01T00:26:10;2.60;99.90
37844;DHT22;63793;57.632;18.292;2023-03-01T00:28:39;2.60;99.90
37844;DHT22;63793;57.632;18.292;2023-03-01T00:31:09;2.70;99.90
37844;DHT22;63793;57.632;18.292;2023-03-01T00:33:37;2.70;99.90
37844;DHT22;63793;57.632;18.292;2023-03-01T00:36:05;2.70;99.90
37844;DHT22;63793;57.632;18.292;2023-03-01T00:38:36;2.70;99.90
37844;DHT22;63793;57.632;18.292;2023-03-01T00:41:05;2.70;99.90
37844;DHT22;63793;57.632;18.292;2023-03-01T00:43:32;2.80;99.90
37844;DHT22;63793;57.632;18.292;2023-03-01T00:46:08;2.80;99.90
37844;DHT22;63793;57.632;18.292;2023-03-01T00:48:36;2.70;99.90
37844;DHT22;63793;57.632;18.292;2023-03-01T00:53:33;2.70;99.90
37844;DHT22;63793;57.632;18.292;2023-03-01T00:56:01;2.60;99.90
37844;DHT22;63793;57.632;18.292;2023-03-01T00:58:28;2.60;99.90
37844;DHT22;63793;57.632;18.292;2023-03-01T01:00:55;2.60;99.90
37844;DHT22;63793;57.632;18.292;2023-03-01T01:03:22;2.60;99.90
37844;DHT22;63793;57.632;18.292;2023-03-01T01:05:52;2.60;99.90
37844;DHT22;63793;57.632;18.292;2023-03-01T01:08:20;2.60;99.90
37844;DHT22;63793;57.632;18.292;2023-03-01T01:10:47;2.60;99.90
37844;DHT22;63793;57.632;18.292;2023-03-01T01:13:14;2.50;99.90
37844;DHT22;63793;57.632;18.292;2023-03-01T01:15:41;2.50;99.90
37844;DHT22;63793;57.632;18.292;2023-03-01T01:18:08;2.50;99.90
37844;DHT22;63793;57.632;18.292;2023-03-01T01:20:35;2.40;99.90
37844;DHT22;63793;57.632;18.292;2023-03-01T01:23:05;2.40;99.90
37844;DHT22;63793;57.632;18.292;2023-03-01T01:25:34;2.40;99.90
37844;DHT22;63793;57.632;18.292;2023-03-01T01:28:01;2.40;99.90
37844;DHT22;63793;57.632;18.292;2023-03-01T01:30:28;2.40;99.90
37844;DHT22;63793;57.632;18.292;2023-03-01T01:32:55;2.40;99.90
37844;DHT22;63793;57.632;18.292;2023-03-01T01:35:22;2.40;99.90
37844;DHT22;63793;57.632;18.292;2023-03-01T01:37:49;2.50;99.90
37844;DHT22;63793;57.632;18.292;2023-03-01T01:40:16;2.40;99.90
37844;DHT22;63793;57.632;18.292;2023-03-01T01:42:43;2.40;99.90
37844;DHT22;63793;57.632;18.292;2023-03-01T01:45:32;2.40;99.90
37844;DHT22;63793;57.632;18.292;2023-03-01T01:48:06;2.40;99.90
37844;DHT22;63793;57.632;18.292;2023-03-01T01:50:40;2.40;99.90
37844;DHT22;63793;57.632;18.292;2023-03-01T01:53:14;2.30;99.90
37844;DHT22;63793;57.632;18.292;2023-03-01T01:55:47;2.30;99.90
37844;DHT22;63793;57.632;18.292;2023-03-01T01:58:18;2.40;99.90
37844;DHT22;63793;57.632;18.292;2023-03-01T02:00:47;2.40;99.90
37844;DHT22;63793;57.632;18.292;2023-03-01T02:03:20;2.40;99.90
37844;DHT22;63793;57.632;18.292;2023-03-01T02:06:03;2.40;99.90
37844;DHT22;63793;57.632;18.292;2023-03-01T02:08:35;2.50;99.90
37844;DHT22;63793;57.632;18.292;2023-03-01T02:11:04;2.50;99.90
37844;DHT22;63793;57.632;18.292;2023-03-01T02:13:33;2.50;99.90
37844;DHT22;63793;57.632;18.292;2023-03-01T02:16:11;2.50;99.90
37844;DHT22;63793;57.632;18.292;2023-03-01T02:18:41;2.50;99.90
37844;DHT22;63793;57.632;18.292;2023-03-01T02:23:48;2.40;99.90
37844;DHT22;63793;57.632;18.292;2023-03-01T02:26:23;2.40;99.90
37844;DHT22;63793;57.632;18.292;2023-03-01T02:28:52;2.30;99.90
37844;DHT22;63793;57.632;18.292;2023-03-01T02:31:20;2.30;99.90
37844;DHT22;63793;57.632;18.292;2023-03-01T02:34:08;2.30;99.90
37844;DHT22;63793;57.632;18.292;2023-03-01T02:36:38;2.30;99.90
37844;DHT22;63793;57.632;18.292;2023-03-01T02:39:06;2.30;99.90
37844;DHT22;63793;57.632;18.292;2023-03-01T02:41:36;2.30;99.90
37844;DHT22;63793;57.632;18.292;2023-03-01T02:44:04;2.30;99.90
37844;DHT22;63793;57.632;18.292;2023-03-01T02:46:32;2.30;99.90
37844;DHT22;63793;57.632;18.292;2023-03-01T02:48:59;2.30;99.90
37844;DHT22;63793;57.632;18.292;2023-03-01T02:51:45;2.30;99.90
37844;DHT22;63793;57.632;18.292;2023-03-01T02:54:28;2.30;99.90
37844;DHT22;63793;57.632;18.292;2023-03-01T02:56:59;2.30;99.90
37844;DHT22;63793;57.632;18.292;2023-03-01T02:59:31;2.30;99.90
37844;DHT22;63793;57.632;18.292;2023-03-01T03:02:00;2.30;99.90
37844;DHT22;63793;57.632;18.292;2023-03-01T03:04:27;2.20;99.90
37844;DHT22;63793;57.632;18.292;2023-03-01T03:06:54;2.20;99.90
37844;DHT22;63793;57.632;18.292;2023-03-01T03:09:22;2.20;99.90
37844;DHT22;63793;57.632;18.292;2023-03-01T03:11:49;2.10;99.90
37844;DHT22;63793;57.632;18.292;2023-03-01T03:14:17;2.10;99.90
37844;DHT22;63793;57.632;18.292;2023-03-01T03:16:48;2.10;99.90
37844;DHT22;63793;57.632;18.292;2023-03-01T03:19:17;2.00;99.90
37844;DHT22;63793;57.632;18.292;2023-03-01T03:21:44;2.00;99.90
37844;DHT22;63793;57.632;18.292;2023-03-01T03:24:11;2.00;99.90
37844;DHT22;63793;57.632;18.292;2023-03-01T03:26:38;2.00;99.90
37844;DHT22;63793;57.632;18.292;2023-03-01T03:29:05;2.00;99.90
37844;DHT22;63793;57.632;18.292;2023-03-01T03:31:32;2.00;99.90
37844;DHT22;63793;57.632;18.292;2023-03-01T03:33:59;2.00;99.90
37844;DHT22;63793;57.632;18.292;2023-03-01T03:36:25;2.10;99.90
37844;DHT22;63793;57.632;18.292;2023-03-01T03:38:52;2.20;99.90
37844;DHT22;63793;57.632;18.292;2023-03-01T03:41:19;2.20;99.90
37844;DHT22;63793;57.632;18.292;2023-03-01T03:43:46;2.30;99.90
37844;DHT22;63793;57.632;18.292;2023-03-01T03:46:13;2.30;99.90
37844;DHT22;63793;57.632;18.292;2023-03-01T03:48:42;2.30;99.90
37844;DHT22;63793;57.632;18.292;2023-03-01T03:51:15;2.30;99.90
37844;DHT22;63793;57.632;18.292;2023-03-01T03:53:44;2.40;99.90
37844;DHT22;63793;57.632;18.292;2023-03-01T03:56:11;2.40;99.90
37844;DHT22;63793;57.632;18.292;2023-03-01T03:58:38;2.40;99.90
37844;DHT22;63793;57.632;18.292;2023-03-01T04:01:05;2.40;99.90
37844;DHT22;63793;57.632;18.292;2023-03-01T04:03:32;2.40;99.90
37844;DHT22;63793;57.632;18.292;2023-03-01T04:06:00;2.40;99.90
37844;DHT22;63793;57.632;18.292;2023-03-01T04:08:27;2.40;99.90
37844;DHT22;63793;57.632;18.292;2023-03-01T04:11:03;2.30;99.90
37844;DHT22;63793;57.632;18.292;2023-03-01T04:13:51;2.30;99.90
37844;DHT22;63793;57.632;18.292;2023-03-01T04:16:19;2.30;99.90
37844;DHT22;63793;57.632;18.292;2023-03-01T04:18:47;2.30;99.90
37844;DHT22;63793;57.632;18.292;2023-03-01T04:21:14;2.30;99.90
37844;DHT22;63793;57.632;18.292;2023-03-01T04:23:42;2.20;99.90
37844;DHT22;63793;57.632;18.292;2023-03-01T04:26:09;2.20;99.90
37844;DHT22;63793;57.632;18.292;2023-03-01T04:28:41;2.20;99.90
37844;DHT22;63793;57.632;18.292;2023-03-01T04:31:14;2.20;99.90
37844;DHT22;63793;57.632;18.292;2023-03-01T04:33:45;2.20;99.90
37844;DHT22;63793;57.632;18.292;2023-03-01T04:36:14;2.20;99.90
37844;DHT22;63793;57.632;18.292;2023-03-01T04:38:41;2.20;99.90
37844;DHT22;63793;57.632;18.292;2023-03-01T04:41:10;2.10;99.90
37844;DHT22;63793;57.632;18.292;2023-03-01T04:43:37;2.10;99.90
37844;DHT22;63793;57.632;18.292;2023-03-01T04:46:07;2.10;99.90
37844;DHT22;63793;57.632;18.292;2023-03-01T04:48:37;2.10;99.90
37844;DHT22;63793;57.632;18.292;2023-03-01T04:51:04;2.10;99.90
37844;DHT22;63793;57.632;18.292;2023-03-01T04:53:33;2.10;99.90
37844;DHT22;63793;57.632;18.292;2023-03-01T04:56:00;2.00;99.90
37844;DHT22;63793;57.632;18.292;2023-03-01T04:58:27;2.00;99.90
37844;DHT22;63793;57.632;18.292;2023-03-01T05:00:55;2.00;99.90
37844;DHT22;63793;57.632;18.292;2023-03-01T05:03:22;2.00;99.90
37844;DHT22;63793;57.632;18.292;2023-03-01T05:05:51;2.00;99.90
37844;DHT22;63793;57.632;18.292;2023-03-01T05:08:19;1.90;99.90
37844;DHT22;63793;57.632;18.292;2023-03-01T05:10:51;1.90;99.90
37844;DHT22;63793;57.632;18.292;2023-03-01T05:13:20;1.90;99.90
37844;DHT22;63793;57.632;18.292;2023-03-01T05:15:49;1.90;99.90
37844;DHT22;63793;57.632;18.292;2023-03-01T05:18:20;1.80;99.90
37844;DHT22;63793;57.632;18.292;2023-03-01T05:20:47;1.80;99.90
37844;DHT22;63793;57.632;18.292;2023-03-01T05:23:14;1.80;99.90
37844;DHT22;63793;57.632;18.292;2023-03-01T05:25:41;1.70;99.90
37844;DHT22;63793;57.632;18.292;2023-03-01T05:28:11;1.70;99.90
37844;DHT22;63793;57.632;18.292;2023-03-01T05:30:39;1.70;99.90
37844;DHT22;63793;57.632;18.292;2023-03-01T05:33:06;1.70;99.90
37844;DHT22;63793;57.632;18.292;2023-03-01T05:35:41;1.70;99.90
37844;DHT22;63793;57.632;18.292;2023-03-01T05:38:10;1.70;99.90
37844;DHT22;63793;57.632;18.292;2023-03-01T05:40:41;1.60;99.90
37844;DHT22;63793;57.632;18.292;2023-03-01T05:43:09;1.70;99.90
37844;DHT22;63793;57.632;18.292;2023-03-01T05:45:37;1.60;99.90
37844;DHT22;63793;57.632;18.292;2023-03-01T05:48:05;1.60;99.90
37844;DHT22;63793;57.632;18.292;2023-03-01T05:50:35;1.60;99.90
37844;DHT22;63793;57.632;18.292;2023-03-01T05:53:11;1.60;99.90
37844;DHT22;63793;57.632;18.292;2023-03-01T05:55:38;1.60;99.90
37844;DHT22;63793;57.632;18.292;2023-03-01T05:58:09;1.70;99.90
37844;DHT22;63793;57.632;18.292;2023-03-01T06:00:36;1.60;99.90
37844;DHT22;63793;57.632;18.292;2023-03-01T06:03:03;1.60;99.90
37844;DHT22;63793;57.632;18.292;2023-03-01T06:05:30;1.60;99.90
37844;DHT22;63793;57.632;18.292;2023-03-01T06:08:01;1.50;99.90
37844;DHT22;63793;57.632;18.292;2023-03-01T06:10:29;1.50;99.90
37844;DHT22;63793;57.632;18.292;2023-03-01T06:12:56;1.50;99.90
37844;DHT22;63793;57.632;18.292;2023-03-01T06:15:24;1.50;99.90
37844;DHT22;63793;57.632;18.292;2023-03-01T06:17:53;1.50;99.90
37844;DHT22;63793;57.632;18.292;2023-03-01T06:20:25;1.50;99.90
37844;DHT22;63793;57.632;18.292;2023-03-01T06:22:52;1.60;99.90
37844;DHT22;63793;57.632;18.292;2023-03-01T06:25:22;1.60;99.90
37844;DHT22;63793;57.632;18.292;2023-03-01T06:27:49;1.70;99.90
37844;DHT22;63793;57.632;18.292;2023-03-01T06:30:18;1.70;99.90
37844;DHT22;63793;57.632;18.292;2023-03-01T06:32:45;1.70;99.90
37844;DHT22;63793;57.632;18.292;2023-03-01T06:35:14;1.70;99.90
37844;DHT22;63793;57.632;18.292;2023-03-01T06:37:41;1.60;99.90
37844;DHT22;63793;57.632;18.292;2023-03-01T06:40:09;1.60;99.90
37844;DHT22;63793;57.632;18.292;2023-03-01T06:42:39;1.70;99.90
37844;DHT22;63793;57.632;18.292;2023-03-01T06:45:07;1.70;99.90
37844;DHT22;63793;57.632;18.292;2023-03-01T06:47:34;1.70;99.90
37844;DHT22;63793;57.632;18.292;2023-03-01T06:50:02;1.90;99.90
37844;DHT22;63793;57.632;18.292;2023-03-01T06:52:29;1.90;99.90
37844;DHT22;63793;57.632;18.292;2023-03-01T06:54:56;2.00;99.90
37844;DHT22;63793;57.632;18.292;2023-03-01T06:57:23;2.00;99.90
37844;DHT22;63793;57.632;18.292;2023-03-01T06:59:50;2.10;99.90
37844;DHT22;63793;57.632;18.292;2023-03-01T07:02:17;2.10;99.90
37844;DHT22;63793;57.632;18.292;2023-03-01T07:04:44;2.10;99.90
37844;DHT22;63793;57.632;18.292;2023-03-01T07:07:11;2.20;99.90
37844;DHT22;63793;57.632;18.292;2023-03-01T07:09:38;2.20;99.90
37844;DHT22;63793;57.632;18.292;2023-03-01T07:12:05;2.30;99.90
37844;DHT22;63793;57.632;18.292;2023-03-01T07:14:32;2.30;99.90
37844;DHT22;63793;57.632;18.292;2023-03-01T07:16:59;2.40;99.90
37844;DHT22;63793;57.632;18.292;2023-03-01T07:19:26;2.40;99.90
37844;DHT22;63793;57.632;18.292;2023-03-01T07:21:53;2.40;99.90
37844;DHT22;63793;57.632;18.292;2023-03-01T07:24:22;2.40;99.90
37844;DHT22;63793;57.632;18.292;2023-03-01T07:26:50;2.50;99.90
37844;DHT22;63793;57.632;18.292;2023-03-01T07:29:17;2.50;99.90
37844;DHT22;63793;57.632;18.292;2023-03-01T07:31:44;2.50;99.90
37844;DHT22;63793;57.632;18.292;2023-03-01T07:34:11;2.50;99.90
37844;DHT22;63793;57.632;18.292;2023-03-01T07:36:38;2.60;99.90
37844;DHT22;63793;57.632;18.292;2023-03-01T07:39:06;2.60;99.90
37844;DHT22;63793;57.632;18.292;2023-03-01T07:41:33;2.60;99.90
37844;DHT22;63793;57.632;18.292;2023-03-01T07:44:00;2.60;99.90
37844;DHT22;63793;57.632;18.292;2023-03-01T07:46:27;2.70;99.90
37844;DHT22;63793;57.632;18.292;2023-03-01T07:48:54;2.70;99.90
37844;DHT22;63793;57.632;18.292;2023-03-01T07:51:21;2.70;99.90
37844;DHT22;63793;57.632;18.292;2023-03-01T07:53:48;2.70;99.90
37844;DHT22;63793;57.632;18.292;2023-03-01T07:56:15;2.80;99.90
37844;DHT22;63793;57.632;18.292;2023-03-01T07:58:46;2.80;99.90
37844;DHT22;63793;57.632;18.292;2023-03-01T08:01:18;2.80;99.90
37844;DHT22;63793;57.632;18.292;2023-03-01T08:03:45;2.80;99.90
37844;DHT22;63793;57.632;18.292;2023-03-01T08:06:13;2.90;99.90
37844;DHT22;63793;57.632;18.292;2023-03-01T08:08:41;2.90;99.90
37844;DHT22;63793;57.632;18.292;2023-03-01T08:11:11;3.00;99.90
37844;DHT22;63793;57.632;18.292;2023-03-01T08:13:38;3.00;99.90
37844;DHT22;63793;57.632;18.292;2023-03-01T08:16:11;3.00;99.90
37844;DHT22;63793;57.632;18.292;2023-03-01T08:18:38;3.10;99.90
37844;DHT22;63793;57.632;18.292;2023-03-01T08:21:11;3.10;99.90
37844;DHT22;63793;57.632;18.292;2023-03-01T08:23:40;3.10;99.90
37844;DHT22;63793;57.632;18.292;2023-03-01T08:26:16;3.10;99.90
37844;DHT22;63793;57.632;18.292;2023-03-01T08:28:43;3.10;99.90
37844;DHT22;63793;57.632;18.292;2023-03-01T08:31:25;3.20;99.90
37844;DHT22;63793;57.632;18.292;2023-03-01T08:33:55;3.20;99.90
37844;DHT22;63793;57.632;18.292;2023-03-01T08:36:24;3.20;99.90
37844;DHT22;63793;57.632;18.292;2023-03-01T08:38:51;3.20;99.90
37844;DHT22;63793;57.632;18.292;2023-03-01T08:41:19;3.30;99.90
37844;DHT22;63793;57.632;18.292;2023-03-01T08:43:46;3.20;99.90
37844;DHT22;63793;57.632;18.292;2023-03-01T08:46:13;3.20;99.90
37844;DHT22;63793;57.632;18.292;2023-03-01T08:48:40;3.20;99.90
37844;DHT22;63793;57.632;18.292;2023-03-01T08:51:12;3.30;99.90
37844;DHT22;63793;57.632;18.292;2023-03-01T08:53:40;3.30;99.90
37844;DHT22;63793;57.632;18.292;2023-03-01T08:56:08;3.30;99.90
37844;DHT22;63793;57.632;18.292;2023-03-01T08:58:36;3.30;99.90
37844;DHT22;63793;57.632;18.292;2023-03-01T09:01:10;3.30;99.90
37844;DHT22;63793;57.632;18.292;2023-03-01T09:03:38;3.40;99.90
37844;DHT22;63793;57.632;18.292;2023-03-01T09:06:06;3.50;99.90
37844;DHT22;63793;57.632;18.292;2023-03-01T09:08:35;3.50;99.90
37844;DHT22;63793;57.632;18.292;2023-03-01T09:11:04;3.50;99.90
37844;DHT22;63793;57.632;18.292;2023-03-01T09:13:31;3.60;99.90
37844;DHT22;63793;57.632;18.292;2023-03-01T09:15:58;3.50;99.90
37844;DHT22;63793;57.632;18.292;2023-03-01T09:18:25;3.50;99.90
37844;DHT22;63793;57.632;18.292;2023-03-01T09:20:52;3.50;99.90
37844;DHT22;63793;57.632;18.292;2023-03-01T09:23:21;3.50;99.90
37844;DHT22;63793;57.632;18.292;2023-03-01T09:25:48;3.50;99.90
37844;DHT22;63793;57.632;18.292;2023-03-01T09:28:15;3.60;99.90
37844;DHT22;63793;57.632;18.292;2023-03-01T09:30:58;3.50;99.90
37844;DHT22;63793;57.632;18.292;2023-03-01T09:33:27;3.50;99.90
37844;DHT22;63793;57.632;18.292;2023-03-01T09:36:14;3.50;99.90
37844;DHT22;63793;57.632;18.292;2023-03-01T09:38:42;3.60;99.90
37844;DHT22;63793;57.632;18.292;2023-03-01T09:44:01;3.60;99.90
37844;DHT22;63793;57.632;18.292;2023-03-01T09:46:36;3.50;99.90
37844;DHT22;63793;57.632;18.292;2023-03-01T09:49:14;3.60;99.90
37844;DHT22;63793;57.632;18.292;2023-03-01T09:54:21;3.70;99.90
37844;DHT22;63793;57.632;18.292;2023-03-01T09:59:40;3.80;99.90
37844;DHT22;63793;57.632;18.292;2023-03-01T10:02:23;3.80;99.90
37844;DHT22;63793;57.632;18.292;2023-03-01T10:04:54;3.80;99.90
37844;DHT22;63793;57.632;18.292;2023-03-01T10:10:27;3.80;99.90
37844;DHT22;63793;57.632;18.292;2023-03-01T10:12:55;3.80;99.90
37844;DHT22;63793;57.632;18.292;2023-03-01T10:15:50;3.80;99.90
37844;DHT22;63793;57.632;18.292;2023-03-01T10:18:20;3.80;99.90
37844;DHT22;63793;57.632;18.292;2023-03-01T10:21:01;3.80;99.90
37844;DHT22;63793;57.632;18.292;2023-03-01T10:23:31;3.80;99.90
37844;DHT22;63793;57.632;18.292;2023-03-01T10:31:15;3.70;99.90
37844;DHT22;63793;57.632;18.292;2023-03-01T10:33:45;3.80;99.90
37844;DHT22;63793;57.632;18.292;2023-03-01T10:36:14;3.80;99.90
37844;DHT22;63793;57.632;18.292;2023-03-01T10:38:54;3.70;99.90
37844;DHT22;63793;57.632;18.292;2023-03-01T10:41:23;3.80;99.90
37844;DHT22;63793;57.632;18.292;2023-03-01T10:43:55;3.90;99.90
37844;DHT22;63793;57.632;18.292;2023-03-01T10:49:16;3.80;99.90
37844;DHT22;63793;57.632;18.292;2023-03-01T10:51:45;3.90;99.90
37844;DHT22;63793;57.632;18.292;2023-03-01T10:54:32;3.90;99.90
37844;DHT22;63793;57.632;18.292;2023-03-01T10:57:01;3.90;99.90
37844;DHT22;63793;57.632;18.292;2023-03-01T10:59:31;4.00;99.90
37844;DHT22;63793;57.632;18.292;2023-03-01T11:02:21;3.90;99.90
37844;DHT22;63793;57.632;18.292;2023-03-01T11:07:54;3.90;99.90
37844;DHT22;63793;57.632;18.292;2023-03-01T11:10:26;3.90;99.90
37844;DHT22;63793;57.632;18.292;2023-03-01T11:12:53;4.00;99.90
37844;DHT22;63793;57.632;18.292;2023-03-01T11:15:31;4.10;99.90
37844;DHT22;63793;57.632;18.292;2023-03-01T11:17:58;4.20;99.90
37844;DHT22;63793;57.632;18.292;2023-03-01T11:20:39;4.10;99.90
37844;DHT22;63793;57.632;18.292;2023-03-01T11:23:13;4.00;99.90
37844;DHT22;63793;57.632;18.292;2023-03-01T11:25:43;4.10;99.90
37844;DHT22;63793;57.632;18.292;2023-03-01T11:28:16;4.10;99.90
37844;DHT22;63793;57.632;18.292;2023-03-01T11:33:53;4.10;99.90
37844;DHT22;63793;57.632;18.292;2023-03-01T11:42:05;4.00;99.90
37844;DHT22;63793;57.632;18.292;2023-03-01T11:44:47;4.10;99.90
37844;DHT22;63793;57.632;18.292;2023-03-01T11:55:42;4.10;99.90
37844;DHT22;63793;57.632;18.292;2023-03-01T12:09:09;4.00;99.90
37844;DHT22;63793;57.632;18.292;2023-03-01T12:14:34;4.00;99.90
37844;DHT22;63793;57.632;18.292;2023-03-01T12:20:32;3.80;99.90
37844;DHT22;63793;57.632;18.292;2023-03-01T12:26:14;3.90;99.90
37844;DHT22;63793;57.632;18.292;2023-03-01T12:34:55;3.90;99.90
37844;DHT22;63793;57.632;18.292;2023-03-01T12:46:21;3.90;99.90
37844;DHT22;63793;57.632;18.292;2023-03-01T12:49:25;3.80;99.90
37844;DHT22;63793;57.632;18.292;2023-03-01T12:52:09;3.80;99.90
37844;DHT22;63793;57.632;18.292;2023-03-01T12:54:36;3.80;99.90
37844;DHT22;63793;57.632;18.292;2023-03-01T12:57:18;3.80;99.90
37844;DHT22;63793;57.632;18.292;2023-03-01T13:02:44;3.90;99.90
37844;DHT22;63793;57.632;18.292;2023-03-01T13:05:21;3.90;99.90
37844;DHT22;63793;57.632;18.292;2023-03-01T13:07:55;3.80;99.90
37844;DHT22;63793;57.632;18.292;2023-03-01T13:10:39;3.80;99.90
37844;DHT22;63793;57.632;18.292;2023-03-01T13:13:33;3.80;99.90
37844;DHT22;63793;57.632;18.292;2023-03-01T13:16:20;3.80;99.90
37844;DHT22;63793;57.632;18.292;2023-03-01T13:18:48;3.90;99.90
37844;DHT22;63793;57.632;18.292;2023-03-01T13:21:29;4.00;99.90
37844;DHT22;63793;57.632;18.292;2023-03-01T13:23:56;3.90;99.90
37844;DHT22;63793;57.632;18.292;2023-03-01T13:26:23;4.00;99.90
37844;DHT22;63793;57.632;18.292;2023-03-01T13:28:55;4.10;99.90
37844;DHT22;63793;57.632;18.292;2023-03-01T13:34:02;4.00;99.90
37844;DHT22;63793;57.632;18.292;2023-03-01T13:39:31;4.00;99.90
37844;DHT22;63793;57.632;18.292;2023-03-01T13:42:34;4.00;99.90
37844;DHT22;63793;57.632;18.292;2023-03-01T13:45:17;4.10;99.90
37844;DHT22;63793;57.632;18.292;2023-03-01T13:47:47;4.10;99.90
37844;DHT22;63793;57.632;18.292;2023-03-01T13:50:23;4.10;99.90
37844;DHT22;63793;57.632;18.292;2023-03-01T13:53:03;4.10;99.90
37844;DHT22;63793;57.632;18.292;2023-03-01T13:56:00;4.20;99.90
37844;DHT22;63793;57.632;18.292;2023-03-01T13:58:33;4.20;99.90
37844;DHT22;63793;57.632;18.292;2023-03-01T14:01:04;4.30;99.90
37844;DHT22;63793;57.632;18.292;2023-03-01T14:03:32;4.40;99.90
37844;DHT22;63793;57.632;18.292;2023-03-01T14:06:15;4.40;99.90
37844;DHT22;63793;57.632;18.292;2023-03-01T14:08:49;4.50;99.90
37844;DHT22;63793;57.632;18.292;2023-03-01T14:14:46;4.80;99.90
37844;DHT22;63793;57.632;18.292;2023-03-01T14:20:16;4.80;99.90
37844;DHT22;63793;57.632;18.292;2023-03-01T14:22:44;4.80;99.90
37844;DHT22;63793;57.632;18.292;2023-03-01T14:25:33;4.80;99.90
37844;DHT22;63793;57.632;18.292;2023-03-01T14:28:02;4.70;99.90
37844;DHT22;63793;57.632;18.292;2023-03-01T14:30:36;4.60;99.90
37844;DHT22;63793;57.632;18.292;2023-03-01T14:33:17;4.70;99.90
37844;DHT22;63793;57.632;18.292;2023-03-01T14:36:10;4.70;99.90
37844;DHT22;63793;57.632;18.292;2023-03-01T14:41:09;4.80;99.90
37844;DHT22;63793;57.632;18.292;2023-03-01T14:43:37;4.80;99.90
37844;DHT22;63793;57.632;18.292;2023-03-01T14:46:05;4.70;99.90
37844;DHT22;63793;57.632;18.292;2023-03-01T14:48:32;4.60;99.90
37844;DHT22;63793;57.632;18.292;2023-03-01T14:50:59;4.60;99.90
37844;DHT22;63793;57.632;18.292;2023-03-01T14:53:28;4.50;99.90
37844;DHT22;63793;57.632;18.292;2023-03-01T14:56:03;4.50;99.90
37844;DHT22;63793;57.632;18.292;2023-03-01T14:58:32;4.50;99.90
37844;DHT22;63793;57.632;18.292;2023-03-01T15:01:02;4.50;99.90
37844;DHT22;63793;57.632;18.292;2023-03-01T15:03:37;4.70;99.90
37844;DHT22;63793;57.632;18.292;2023-03-01T15:06:06;5.00;99.90
37844;DHT22;63793;57.632;18.292;2023-03-01T15:08:35;5.00;99.90
37844;DHT22;63793;57.632;18.292;2023-03-01T15:13:51;5.40;99.90
37844;DHT22;63793;57.632;18.292;2023-03-01T15:18:59;5.60;99.90
37844;DHT22;63793;57.632;18.292;2023-03-01T15:21:33;5.60;99.90
37844;DHT22;63793;57.632;18.292;2023-03-01T15:26:59;5.80;99.90
37844;DHT22;63793;57.632;18.292;2023-03-01T15:29:30;5.70;99.90
37844;DHT22;63793;57.632;18.292;2023-03-01T15:34:32;5.40;99.90
37844;DHT22;63793;57.632;18.292;2023-03-01T15:37:01;5.20;99.90
37844;DHT22;63793;57.632;18.292;2023-03-01T15:39:42;5.10;99.90
37844;DHT22;63793;57.632;18.292;2023-03-01T15:47:48;4.70;99.90
37844;DHT22;63793;57.632;18.292;2023-03-01T15:50:19;4.70;99.90
37844;DHT22;63793;57.632;18.292;2023-03-01T15:52:47;4.60;99.90
37844;DHT22;63793;57.632;18.292;2023-03-01T15:55:27;4.50;99.90
37844;DHT22;63793;57.632;18.292;2023-03-01T15:58:17;4.40;99.90
37844;DHT22;63793;57.632;18.292;2023-03-01T16:00:46;4.30;99.90
37844;DHT22;63793;57.632;18.292;2023-03-01T16:03:26;4.20;99.90
37844;DHT22;63793;57.632;18.292;2023-03-01T16:05:53;4.20;99.90
37844;DHT22;63793;57.632;18.292;2023-03-01T16:08:20;4.10;99.90
37844;DHT22;63793;57.632;18.292;2023-03-01T16:10:48;4.00;99.90
37844;DHT22;63793;57.632;18.292;2023-03-01T16:13:18;4.00;99.90
37844;DHT22;63793;57.632;18.292;2023-03-01T16:15:46;3.90;99.90
37844;DHT22;63793;57.632;18.292;2023-03-01T16:18:13;3.80;99.90
37844;DHT22;63793;57.632;18.292;2023-03-01T16:20:40;3.80;99.90
37844;DHT22;63793;57.632;18.292;2023-03-01T16:23:10;3.70;99.90
37844;DHT22;63793;57.632;18.292;2023-03-01T16:25:37;3.70;99.90
37844;DHT22;63793;57.632;18.292;2023-03-01T16:28:04;3.60;99.90
37844;DHT22;63793;57.632;18.292;2023-03-01T16:30:37;3.60;99.90
37844;DHT22;63793;57.632;18.292;2023-03-01T16:33:04;3.60;99.90
37844;DHT22;63793;57.632;18.292;2023-03-01T16:35:52;3.50;99.90
37844;DHT22;63793;57.632;18.292;2023-03-01T16:38:19;3.50;99.90
37844;DHT22;63793;57.632;18.292;2023-03-01T16:40:51;3.50;99.90
37844;DHT22;63793;57.632;18.292;2023-03-01T16:43:18;3.40;99.90
37844;DHT22;63793;57.632;18.292;2023-03-01T16:45:45;3.40;99.90
37844;DHT22;63793;57.632;18.292;2023-03-01T16:48:13;3.40;99.90
37844;DHT22;63793;57.632;18.292;2023-03-01T16:50:40;3.40;99.90
37844;DHT22;63793;57.632;18.292;2023-03-01T16:53:07;3.30;99.90
37844;DHT22;63793;57.632;18.292;2023-03-01T16:55:34;3.30;99.90
37844;DHT22;63793;57.632;18.292;2023-03-01T16:58:02;3.30;99.90
37844;DHT22;63793;57.632;18.292;2023-03-01T17:00:30;3.30;99.90
37844;DHT22;63793;57.632;18.292;2023-03-01T17:02:57;3.20;99.90
37844;DHT22;63793;57.632;18.292;2023-03-01T17:05:24;3.20;99.90
37844;DHT22;63793;57.632;18.292;2023-03-01T17:07:53;3.10;99.90
37844;DHT22;63793;57.632;18.292;2023-03-01T17:10:22;3.10;99.90
37844;DHT22;63793;57.632;18.292;2023-03-01T17:12:49;3.10;99.90
37844;DHT22;63793;57.632;18.292;2023-03-01T17:15:16;3.10;99.90
37844;DHT22;63793;57.632;18.292;2023-03-01T17:17:43;3.10;99.90
37844;DHT22;63793;57.632;18.292;2023-03-01T17:20:11;3.20;99.90
37844;DHT22;63793;57.632;18.292;2023-03-01T17:22:38;3.10;99.90
37844;DHT22;63793;57.632;18.292;2023-03-01T17:25:08;3.10;99.90
37844;DHT22;63793;57.632;18.292;2023-03-01T17:27:37;3.10;99.90
37844;DHT22;63793;57.632;18.292;2023-03-01T17:30:07;3.10;99.90
37844;DHT22;63793;57.632;18.292;2023-03-01T17:32:34;3.10;99.90
37844;DHT22;63793;57.632;18.292;2023-03-01T17:35:02;3.10;99.90
37844;DHT22;63793;57.632;18.292;2023-03-01T17:37:29;3.10;99.90
37844;DHT22;63793;57.632;18.292;2023-03-01T17:39:56;3.10;99.90
37844;DHT22;63793;57.632;18.292;2023-03-01T17:42:22;3.10;99.90
37844;DHT22;63793;57.632;18.292;2023-03-01T17:44:49;3.10;99.90